Time;durP1;ratioP1;P1;durP2;ratioP2;P2;SDS_P1;SDS_P2;PMS_P1;PMS_P2;Temp;Humidity;BMP_temperature;BMP_pressure;BME280_temperature;BME280_humidity;BME280_pressure;Samples;Min_cycle;Max_cycle;Signal;HPM_P1;HPM_P2
2022/11/20 00:01:30;;;;;;;20.58;12.35;;;;;;;-2.11;100.00;101465.84;5010097;28;20055;-66
2022/11/20 00:03:57;;;;;;;20.58;12.18;;;;;;;-2.13;100.00;101459.75;5008166;28;20525;-68
2022/11/20 00:06:22;;;;;;;23.92;12.20;;;;;;;-2.08;100.00;101471.94;5009344;28;20119;-64
2022/11/20 00:08:48;;;;;;;19.17;11.52;;;;;;;-2.10;100.00;101473.63;5009133;28;20116;-69
2022/11/20 00:11:19;;;;;;;20.40;11.45;;;;;;;-2.13;100.00;101473.53;5009886;28;20137;-67
2022/11/20 00:13:45;;;;;;;23.23;11.98;;;;;;;-2.10;100.00;101471.03;5010012;28;20026;-68
2022/11/20 00:16:12;;;;;;;20.45;11.38;;;;;;;-2.05;100.00;101476.31;5007976;28;20032;-69
2022/11/20 00:18:38;;;;;;;21.02;12.07;;;;;;;-2.04;100.00;101478.94;5009811;28;20038;-70
2022/11/20 00:21:05;;;;;;;22.42;12.13;;;;;;;-2.03;100.00;101472.09;5009153;28;20400;-68
2022/11/20 00:23:31;;;;;;;23.60;12.23;;;;;;;-2.02;100.00;101468.66;4996556;28;20077;-69
2022/11/20 00:25:56;;;;;;;20.60;11.98;;;;;;;-2.06;100.00;101472.88;4989400;28;20420;-69
2022/11/20 00:28:22;;;;;;;22.70;12.65;;;;;;;-2.06;100.00;101477.16;4989344;28;20097;-69
2022/11/20 00:30:47;;;;;;;21.33;12.93;;;;;;;-2.13;100.00;101478.69;4990343;28;20022;-65
2022/11/20 00:33:12;;;;;;;19.83;11.20;;;;;;;-2.18;100.00;101477.69;4991145;28;20030;-68
2022/11/20 00:35:38;;;;;;;22.85;12.85;;;;;;;-2.18;100.00;101473.41;4989250;28;20069;-68
2022/11/20 00:38:03;;;;;;;21.38;12.30;;;;;;;-2.17;100.00;101467.41;4989497;28;20030;-71
2022/11/20 00:40:28;;;;;;;30.58;12.95;;;;;;;-2.15;100.00;101462.28;4989937;28;20101;-67
2022/11/20 00:42:54;;;;;;;23.67;12.02;;;;;;;-2.19;100.00;101469.06;4988489;28;20026;-70
2022/11/20 00:45:19;;;;;;;21.67;11.93;;;;;;;-2.22;100.00;101465.50;4989979;28;20108;-68
2022/11/20 00:47:44;;;;;;;24.15;12.75;;;;;;;-2.27;100.00;101460.22;4990209;28;20372;-68
2022/11/20 00:50:09;;;;;;;23.90;13.45;;;;;;;-2.31;100.00;101454.09;4989622;28;20102;-71
2022/11/20 00:52:35;;;;;;;20.23;12.40;;;;;;;-2.34;100.00;101447.97;4987845;28;20058;-62
2022/11/20 00:55:00;;;;;;;31.35;12.63;;;;;;;-2.30;100.00;101444.63;4989058;28;20038;-68
2022/11/20 00:57:25;;;;;;;25.90;11.95;;;;;;;-2.28;100.00;101443.84;4987074;28;20050;-66
2022/11/20 00:59:51;;;;;;;24.88;13.23;;;;;;;-2.30;100.00;101442.06;4989191;28;20081;-68
2022/11/20 01:02:16;;;;;;;23.13;13.63;;;;;;;-2.28;100.00;101445.56;4989680;28;20026;-64
2022/11/20 01:04:42;;;;;;;21.73;12.70;;;;;;;-2.26;100.00;101446.47;4989119;28;20479;-67
2022/11/20 01:07:07;;;;;;;23.75;11.55;;;;;;;-2.21;100.00;101447.50;4988628;28;20121;-66
2022/11/20 01:09:32;;;;;;;22.77;12.75;;;;;;;-2.24;100.00;101451.69;4989538;28;20493;-69
2022/11/20 01:11:58;;;;;;;24.58;12.35;;;;;;;-2.27;100.00;101455.06;4989516;28;20414;-66
2022/11/20 01:14:24;;;;;;;20.17;12.05;;;;;;;-2.30;100.00;101458.44;4989790;28;20049;-69
2022/11/20 01:16:50;;;;;;;18.85;12.02;;;;;;;-2.34;100.00;101448.84;4989705;28;20030;-69
2022/11/20 01:19:18;;;;;;;20.35;11.90;;;;;;;-2.40;100.00;101448.66;4989401;28;20030;-67
2022/11/20 01:21:45;;;;;;;19.80;10.95;;;;;;;-2.39;100.00;101452.09;4988333;28;20065;-70
2022/11/20 01:24:13;;;;;;;20.77;12.27;;;;;;;-2.43;100.00;101454.63;4988345;28;20034;-69
2022/11/20 01:26:40;;;;;;;19.80;11.50;;;;;;;-2.46;100.00;101448.47;4988929;28;20496;-70
2022/11/20 01:29:06;;;;;;;22.17;11.02;;;;;;;-2.48;100.00;101439.78;4988876;28;20108;-68
2022/11/20 01:31:34;;;;;;;20.92;12.13;;;;;;;-2.52;100.00;101443.13;4989031;28;20036;-69
2022/11/20 01:34:03;;;;;;;23.83;13.23;;;;;;;-2.56;100.00;101437.88;4988693;28;20023;-67
2022/11/20 01:36:30;;;;;;;23.77;11.97;;;;;;;-2.57;100.00;101430.97;4988981;28;20034;-69
2022/11/20 01:38:58;;;;;;;23.38;11.93;;;;;;;-2.57;100.00;101425.81;4987953;28;20041;-68
2022/11/20 01:44:11;;;;;;;21.25;12.13;;;;;;;-2.52;100.00;101419.91;4988535;28;20100;-65
2022/11/20 01:46:38;;;;;;;22.90;12.73;;;;;;;-2.56;100.00;101426.69;4987137;28;20066;-66
2022/11/20 01:49:19;;;;;;;19.27;11.23;;;;;;;-2.59;100.00;101431.75;4986078;28;20022;-70
2022/11/20 01:51:49;;;;;;;20.58;12.40;;;;;;;-2.61;100.00;101433.41;4987621;28;20500;-68
2022/11/20 01:54:30;;;;;;;24.60;13.32;;;;;;;-2.51;100.00;101439.69;4986639;28;20477;-68
2022/11/20 01:56:57;;;;;;;21.00;13.18;;;;;;;-2.52;100.00;101430.22;4986833;28;20053;-70
2022/11/20 01:59:24;;;;;;;26.83;12.82;;;;;;;-2.54;100.00;101432.75;4988234;28;20026;-68
2022/11/20 02:01:49;;;;;;;21.60;11.80;;;;;;;-2.59;100.00;101442.94;4987133;28;20022;-69
2022/11/20 02:04:15;;;;;;;23.45;13.18;;;;;;;-2.66;100.00;101435.84;4988745;28;20114;-67
2022/11/20 02:06:55;;;;;;;21.55;12.35;;;;;;;-2.72;100.00;101436.53;4987246;28;20030;-69
2022/11/20 02:09:20;;;;;;;22.33;12.35;;;;;;;-2.71;100.00;101447.75;4986359;28;20044;-67
2022/11/20 02:11:46;;;;;;;23.25;13.18;;;;;;;-2.73;100.00;101449.38;4988916;28;20101;-70
2022/11/20 02:14:11;;;;;;;24.40;12.65;;;;;;;-2.69;100.00;101440.91;4987832;28;20069;-68
2022/11/20 02:16:40;;;;;;;22.15;12.73;;;;;;;-2.69;100.00;101440.91;4987865;28;20034;-67
2022/11/20 02:19:11;;;;;;;22.25;11.95;;;;;;;-2.72;100.00;101445.97;4987922;28;20027;-69
2022/11/20 02:21:40;;;;;;;23.58;13.00;;;;;;;-2.76;100.00;101446.72;4986978;28;20041;-68
2022/11/20 02:24:11;;;;;;;21.50;12.43;;;;;;;-2.76;100.00;101451.88;4987843;28;20038;-68
2022/11/20 02:26:43;;;;;;;20.45;12.13;;;;;;;-2.79;100.00;101443.19;4988116;28;20031;-68
2022/11/20 02:29:08;;;;;;;22.95;12.98;;;;;;;-2.79;100.00;101444.91;4989165;28;20649;-68
2022/11/20 02:31:38;;;;;;;24.02;13.55;;;;;;;-2.83;100.00;101437.91;4998892;28;20026;-69
2022/11/20 02:34:04;;;;;;;24.05;14.00;;;;;;;-2.82;100.00;101434.50;4991124;28;20049;-66
2022/11/20 02:36:30;;;;;;;24.75;12.65;;;;;;;-2.87;100.00;101425.72;4989849;28;20448;-64
2022/11/20 02:38:56;;;;;;;25.85;12.70;;;;;;;-2.89;100.00;101436.00;4989798;28;20022;-69
2022/11/20 02:41:22;;;;;;;24.42;13.60;;;;;;;-2.92;100.00;101434.19;4991264;28;20389;-68
2022/11/20 02:43:47;;;;;;;28.75;13.70;;;;;;;-2.93;100.00;101427.31;4991871;28;20469;-66
2022/11/20 02:46:12;;;;;;;24.90;13.77;;;;;;;-2.93;100.00;101426.41;4991609;28;20034;-69
2022/11/20 02:48:37;;;;;;;23.13;12.98;;;;;;;-2.93;100.00;101418.69;4991760;28;20025;-67
2022/11/20 02:51:03;;;;;;;24.70;12.55;;;;;;;-2.95;100.00;101422.94;4991017;28;20436;-68
2022/11/20 02:53:28;;;;;;;26.90;13.55;;;;;;;-2.95;100.00;101412.63;4991242;28;20026;-67
2022/11/20 02:55:54;;;;;;;25.90;13.88;;;;;;;-2.96;100.00;101416.00;4990419;28;20030;-69
2022/11/20 02:58:19;;;;;;;21.92;12.93;;;;;;;-2.98;100.00;101418.53;4990720;28;20018;-64
2022/11/20 03:00:44;;;;;;;23.83;12.38;;;;;;;-2.97;100.00;101414.25;4991484;28;20068;-68
2022/11/20 03:03:10;;;;;;;22.77;12.80;;;;;;;-3.02;100.00;101408.94;4990467;28;20109;-70
2022/11/20 03:05:35;;;;;;;20.27;12.32;;;;;;;-3.01;100.00;101412.41;4991346;28;20118;-70
2022/11/20 03:08:00;;;;;;;24.35;13.40;;;;;;;-2.95;100.00;101397.16;4989895;28;20393;-68
2022/11/20 03:10:26;;;;;;;24.00;13.07;;;;;;;-2.96;100.00;101392.78;4991457;28;20057;-68
2022/11/20 03:12:55;;;;;;;25.63;13.07;;;;;;;-2.92;100.00;101385.19;4991782;28;20027;-68
2022/11/20 03:15:22;;;;;;;22.55;12.85;;;;;;;-2.86;100.00;101387.09;4991091;28;20034;-64
2022/11/20 03:17:47;;;;;;;22.25;12.65;;;;;;;-2.88;100.00;101388.75;4990155;28;20373;-65
2022/11/20 03:20:12;;;;;;;20.77;12.90;;;;;;;-2.88;100.00;101387.88;4991145;28;20109;-66
2022/11/20 03:22:38;;;;;;;21.30;12.43;;;;;;;-2.92;100.00;101379.19;4990535;28;20098;-68
2022/11/20 03:25:04;;;;;;;24.30;12.23;;;;;;;-2.94;100.00;101373.97;4996372;28;20050;-69
2022/11/20 03:27:33;;;;;;;20.08;11.60;;;;;;;-2.96;100.00;101374.75;5010302;28;20026;-68
2022/11/20 03:29:58;;;;;;;;;;;;;;;-2.95;100.00;101363.63;5001795;28;20026;-66
2022/11/20 03:32:23;;;;;;;21.17;11.80;;;;;;;-2.93;100.00;101367.09;4991151;28;19916;-69
2022/11/20 03:34:49;;;;;;;23.90;13.00;;;;;;;-2.87;100.00;101363.81;4989729;28;20052;-70
2022/11/20 03:37:14;;;;;;;22.40;13.05;;;;;;;-2.88;100.00;101362.97;4991153;28;20023;-64
2022/11/20 03:39:39;;;;;;;23.95;12.60;;;;;;;-2.85;100.00;101363.06;4990751;28;20442;-70
2022/11/20 03:42:44;;;;;;;22.63;12.75;;;;;;;-2.90;100.00;101358.56;4990351;28;20069;-69
2022/11/20 03:44:50;;;;;;;21.65;11.95;;;;;;;-2.93;100.00;101359.38;4990572;28;20049;-68
2022/11/20 03:47:15;;;;;;;22.27;12.68;;;;;;;-2.95;100.00;101350.72;4991473;28;20030;-67
2022/11/20 03:49:40;;;;;;;23.98;13.10;;;;;;;-2.96;100.00;101341.22;4990928;28;20105;-68
2022/11/20 03:52:06;;;;;;;23.55;12.27;;;;;;;-2.97;100.00;101347.22;4989512;28;20066;-70
2022/11/20 03:54:31;;;;;;;22.42;12.77;;;;;;;-2.99;100.00;101333.38;4990577;28;20069;-67
2022/11/20 03:56:56;;;;;;;21.40;12.68;;;;;;;-2.98;100.00;101340.31;4990041;28;20023;-66
2022/11/20 03:59:22;;;;;;;22.58;13.93;;;;;;;-3.01;100.00;101341.06;4990818;28;20034;-67
2022/11/20 04:01:47;;;;;;;23.08;13.77;;;;;;;-3.02;100.00;101351.34;4990671;28;20037;-63
2022/11/20 04:04:12;;;;;;;23.50;12.15;;;;;;;-3.02;100.00;101351.34;4990894;28;20033;-68
2022/11/20 04:06:38;;;;;;;20.10;12.90;;;;;;;-3.05;100.00;101345.28;4989806;28;20026;-60
2022/11/20 04:09:03;;;;;;;21.70;12.38;;;;;;;-3.05;100.00;101340.13;4990009;28;20046;-68
2022/11/20 04:11:32;;;;;;;22.75;13.15;;;;;;;-3.06;100.00;101335.81;4990334;28;20362;-67
2022/11/20 04:13:59;;;;;;;24.27;12.02;;;;;;;-3.03;100.00;101328.97;4989638;28;20034;-67
2022/11/20 04:16:25;;;;;;;23.02;12.85;;;;;;;-3.00;100.00;101326.50;4990409;28;20507;-67
2022/11/20 04:18:55;;;;;;;24.15;13.02;;;;;;;-2.98;100.00;101324.84;4989177;28;20034;-68
2022/11/20 04:21:21;;;;;;;23.45;12.43;;;;;;;-2.92;100.00;101309.56;4990401;28;20026;-68
2022/11/20 04:23:46;;;;;;;24.80;12.77;;;;;;;-2.86;100.00;101309.72;4989512;28;20026;-65
2022/11/20 04:26:12;;;;;;;25.27;13.85;;;;;;;-2.81;100.00;101303.00;4990026;28;20034;-66
2022/11/20 04:28:38;;;;;;;25.58;14.48;;;;;;;-2.79;100.00;101311.63;4990374;28;20029;-67
2022/11/20 04:31:12;;;;;;;27.25;13.77;;;;;;;-2.79;100.00;101309.06;4989124;28;20112;-65
2022/11/20 04:33:38;;;;;;;25.98;14.73;;;;;;;-2.76;100.00;101310.88;4989730;28;20113;-67
2022/11/20 04:36:10;;;;;;;24.73;13.57;;;;;;;-2.80;100.00;101309.88;4989360;28;20597;-67
2022/11/20 04:38:36;;;;;;;25.48;14.43;;;;;;;-2.81;100.00;101307.25;4988859;28;20366;-67
2022/11/20 04:41:04;;;;;;;25.98;13.57;;;;;;;-2.82;100.00;101300.38;4989786;28;20049;-67
2022/11/20 04:43:29;;;;;;;31.95;15.63;;;;;;;-2.83;100.00;101299.47;4989534;28;20034;-69
2022/11/20 04:45:56;;;;;;;24.73;13.73;;;;;;;-2.79;100.00;101311.63;4989897;28;20030;-70
2022/11/20 04:48:21;;;;;;;23.38;14.50;;;;;;;-2.78;100.00;101312.50;4989738;28;20030;-68
2022/11/20 04:50:47;;;;;;;30.10;14.48;;;;;;;-2.74;100.00;101304.03;4990338;28;20393;-67
2022/11/20 04:53:12;;;;;;;26.20;13.90;;;;;;;-2.76;100.00;101294.50;4989506;28;20030;-63
2022/11/20 04:55:37;;;;;;;24.25;13.48;;;;;;;-2.78;100.00;101302.19;4989719;28;20116;-66
2022/11/20 04:58:03;;;;;;;24.90;13.90;;;;;;;-2.79;100.00;101306.47;4993592;28;20030;-66
2022/11/20 05:00:28;;;;;;;26.88;14.35;;;;;;;-2.80;100.00;101299.56;5008998;28;20033;-67
2022/11/20 05:02:53;;;;;;;26.35;13.70;;;;;;;-2.81;100.00;101307.25;5008367;28;20030;-66
2022/11/20 05:05:19;;;;;;;29.58;14.45;;;;;;;-2.81;100.00;101312.44;5008819;28;20038;-67
2022/11/20 05:07:44;;;;;;;26.25;14.52;;;;;;;-2.82;100.00;101306.41;5008203;28;20104;-66
2022/11/20 05:10:09;;;;;;;22.75;13.63;;;;;;;-2.81;100.00;101307.25;5008364;28;20511;-67
2022/11/20 05:12:35;;;;;;;24.55;13.35;;;;;;;-2.85;100.00;101305.44;5009039;28;20675;-64
2022/11/20 05:15:00;;;;;;;25.25;13.77;;;;;;;-2.87;100.00;101296.75;5008546;28;20041;-66
2022/11/20 05:17:25;;;;;;;25.75;13.10;;;;;;;-2.89;100.00;101298.44;5008751;28;20064;-67
2022/11/20 05:19:50;;;;;;;26.83;13.68;;;;;;;-2.89;100.00;101303.59;5008397;28;20048;-69
2022/11/20 05:22:16;;;;;;;23.15;13.10;;;;;;;-2.94;100.00;101309.50;5008283;28;20030;-68
2022/11/20 05:24:41;;;;;;;28.20;13.07;;;;;;;-2.93;100.00;101313.81;5007558;28;20679;-65
2022/11/20 05:27:07;;;;;;;24.10;12.82;;;;;;;-2.94;100.00;101311.19;5003914;28;20284;-68
2022/11/20 05:29:32;;;;;;;25.35;13.85;;;;;;;-2.94;100.00;101324.97;4990722;28;20026;-66
2022/11/20 05:31:57;;;;;;;25.42;13.90;;;;;;;-2.96;100.00;101323.16;4987017;28;20481;-68
2022/11/20 05:34:22;;;;;;;26.08;14.52;;;;;;;-2.87;100.00;101331.19;4988231;28;20052;-65
2022/11/20 05:36:48;;;;;;;23.13;13.25;;;;;;;-2.87;100.00;101314.81;4987271;28;20113;-67
2022/11/20 05:39:13;;;;;;;24.25;13.48;;;;;;;-2.92;100.00;101307.81;4988750;28;20034;-67
2022/11/20 05:41:38;;;;;;;23.35;13.57;;;;;;;-2.87;100.00;101304.50;4988639;28;20568;-69
2022/11/20 05:44:04;;;;;;;24.15;13.20;;;;;;;-2.85;100.00;101300.28;4987130;28;20053;-63
2022/11/20 05:46:29;;;;;;;26.67;13.85;;;;;;;-2.82;100.00;101300.38;4988557;28;20030;-66
2022/11/20 05:48:56;;;;;;;26.58;12.80;;;;;;;-2.77;100.00;101298.78;4988026;28;20038;-67
2022/11/20 05:51:21;;;;;;;23.90;13.25;;;;;;;-2.70;100.00;101292.09;4987565;28;20032;-65
2022/11/20 05:53:47;;;;;;;22.63;14.02;;;;;;;-2.66;100.00;101291.34;4988087;28;20113;-67
2022/11/20 05:56:15;;;;;;;24.83;13.15;;;;;;;-2.60;100.00;101288.06;4988738;28;20088;-66
2022/11/20 05:58:40;;;;;;;27.00;14.20;;;;;;;-2.57;100.00;101285.56;4987751;28;20031;-67
2022/11/20 06:01:11;;;;;;;26.73;14.00;;;;;;;-2.53;100.00;101287.41;4987984;28;20036;-66
2022/11/20 06:03:37;;;;;;;26.92;15.27;;;;;;;-2.46;100.00;101293.63;4986934;28;20026;-67
2022/11/20 06:06:04;;;;;;;25.60;14.95;;;;;;;-2.46;100.00;101289.34;4986978;28;20076;-64
2022/11/20 06:08:29;;;;;;;28.88;14.82;;;;;;;-2.45;100.00;101290.19;4987949;28;20046;-66
2022/11/20 06:10:55;;;;;;;25.52;14.57;;;;;;;-2.46;100.00;101267.81;4988061;28;20029;-67
2022/11/20 06:13:20;;;;;;;29.42;15.52;;;;;;;-2.48;100.00;101265.19;4987518;28;20058;-63
2022/11/20 06:15:52;;;;;;;33.50;15.75;;;;;;;-2.38;100.00;101266.28;4988322;28;20039;-68
2022/11/20 06:18:18;;;;;;;30.17;15.52;;;;;;;-2.37;100.00;101260.31;4986458;28;20030;-62
2022/11/20 06:20:43;;;;;;;26.15;14.68;;;;;;;-2.35;100.00;101262.94;4988292;28;20477;-62
2022/11/20 06:23:09;;;;;;;26.73;14.45;;;;;;;-2.33;100.00;101267.31;4985778;28;20036;-67
2022/11/20 06:25:38;;;;;;;30.80;15.02;;;;;;;-2.35;100.00;101266.38;4988217;28;20026;-67
2022/11/20 06:28:03;;;;;;;;;;;;;;;-2.28;100.00;101259.69;4987795;28;20058;-64
2022/11/20 06:30:28;;;;;;;28.90;14.52;;;;;;;-2.21;100.00;101258.13;4987973;28;19953;-67
2022/11/20 06:32:54;;;;;;;26.27;14.95;;;;;;;-2.24;100.00;101253.75;4988183;28;20061;-65
2022/11/20 06:35:19;;;;;;;25.88;15.10;;;;;;;-2.16;100.00;101256.53;4987018;28;20058;-67
2022/11/20 06:37:44;;;;;;;31.90;15.68;;;;;;;-2.17;100.00;101249.59;4987794;28;20029;-62
2022/11/20 06:40:10;;;;;;;25.73;14.85;;;;;;;-2.11;100.00;101248.91;4987588;28;20027;-64
2022/11/20 06:42:36;;;;;;;27.08;15.25;;;;;;;-2.11;100.00;101252.34;4987528;28;20089;-68
2022/11/20 06:45:01;;;;;;;24.52;14.52;;;;;;;-2.11;100.00;101247.19;4987676;28;20530;-68
2022/11/20 06:47:26;;;;;;;25.38;14.63;;;;;;;-2.06;100.00;101248.19;4987407;28;20018;-65
2022/11/20 06:49:51;;;;;;;29.27;15.38;;;;;;;-2.03;100.00;101248.25;4987391;28;20081;-68
2022/11/20 06:52:17;;;;;;;27.77;16.13;;;;;;;-1.98;100.00;101242.34;4987118;28;20030;-68
2022/11/20 06:54:42;;;;;;;28.75;16.10;;;;;;;-1.92;100.00;101240.75;4987735;28;20057;-68
2022/11/20 06:57:07;;;;;;;31.95;16.60;;;;;;;-1.85;100.00;101231.47;4986637;28;20027;-69
2022/11/20 06:59:33;;;;;;;32.53;16.35;;;;;;;-1.84;100.00;101225.44;4987904;28;20062;-68
2022/11/20 07:01:58;;;;;;;29.35;16.25;;;;;;;-1.76;100.00;101235.09;4987366;28;20473;-67
2022/11/20 07:04:23;;;;;;;28.77;15.55;;;;;;;-1.73;100.00;101236.03;4984410;28;20085;-69
2022/11/20 07:06:49;;;;;;;36.40;17.13;;;;;;;-1.61;100.00;101230.28;4986863;28;20080;-67
2022/11/20 07:09:14;;;;;;;32.33;17.10;;;;;;;-1.54;100.00;101226.13;4987770;28;20105;-66
2022/11/20 07:11:39;;;;;;;29.38;16.63;;;;;;;-1.45;100.00;101230.63;4987705;28;20061;-68
2022/11/20 07:14:05;;;;;;;32.17;15.43;;;;;;;-1.44;100.00;101233.22;4986644;28;20029;-66
2022/11/20 07:16:30;;;;;;;30.50;17.45;;;;;;;-1.38;100.00;101231.63;4988243;28;20034;-63
2022/11/20 07:18:55;;;;;;;31.67;17.38;;;;;;;-1.30;100.00;101233.53;4990911;28;20864;-69
2022/11/20 07:21:21;;;;;;;32.65;17.50;;;;;;;-1.26;100.00;101239.69;4989880;28;20668;-67
2022/11/20 07:23:46;;;;;;;29.00;16.60;;;;;;;-1.24;100.00;101239.72;4991544;28;20469;-67
2022/11/20 07:26:11;;;;;;;31.73;17.70;;;;;;;-1.24;100.00;101231.94;4990331;28;20022;-66
2022/11/20 07:28:37;;;;;;;34.85;18.27;;;;;;;-1.12;100.00;101236.50;4988891;28;20502;-65
2022/11/20 07:31:04;;;;;;;34.17;17.48;;;;;;;-1.13;100.00;101238.22;4990322;28;20237;-65
2022/11/20 07:33:30;;;;;;;35.63;18.75;;;;;;;-1.11;100.00;101246.88;4990699;28;20031;-66
2022/11/20 07:35:55;;;;;;;30.98;18.42;;;;;;;-0.99;100.00;101245.38;4989343;28;20022;-67
2022/11/20 07:38:21;;;;;;;32.03;17.77;;;;;;;-0.87;100.00;101248.22;4990118;28;20031;-65
2022/11/20 07:40:46;;;;;;;34.25;16.83;;;;;;;-0.82;100.00;101253.47;4990830;28;20054;-67
2022/11/20 07:43:11;;;;;;;33.65;18.73;;;;;;;-0.87;100.00;101240.47;4988221;28;20665;-66
2022/11/20 07:45:37;;;;;;;33.22;18.08;;;;;;;-0.78;100.00;101239.78;4990127;28;20041;-62
2022/11/20 07:48:02;;;;;;;27.85;16.90;;;;;;;-0.75;100.00;101238.97;4990392;28;20033;-67
2022/11/20 07:50:27;;;;;;;28.23;16.52;;;;;;;-0.72;100.00;101241.59;4988439;28;20062;-68
2022/11/20 07:53:00;;;;;;;27.02;16.55;;;;;;;-0.64;100.00;101243.50;4989649;28;20062;-67
2022/11/20 07:55:25;;;;;;;27.83;17.23;;;;;;;-0.64;100.00;101234.84;4990354;28;20038;-64
2022/11/20 07:57:55;;;;;;;28.30;16.63;;;;;;;-0.51;100.00;101234.22;4990268;28;20022;-68
2022/11/20 08:00:21;;;;;;;29.25;17.25;;;;;;;-0.36;100.00;101235.34;4988973;28;20018;-64
2022/11/20 08:02:46;;;;;;;29.48;17.10;;;;;;;-0.34;100.00;101235.38;4990077;28;20037;-65
2022/11/20 08:05:11;;;;;;;24.20;15.20;;;;;;;-0.32;100.00;101237.16;4989235;28;20109;-65
2022/11/20 08:07:41;;;;;;;31.60;17.08;;;;;;;-0.25;100.00;101245.91;4988926;28;20089;-66
2022/11/20 08:10:09;;;;;;;30.13;17.15;;;;;;;-0.12;100.00;101254.75;4989854;28;20696;-66
2022/11/20 08:15:18;;;;;;;25.08;15.60;;;;;;;-0.18;100.00;101246.91;4988836;28;20041;-65
2022/11/20 08:17:43;;;;;;;27.95;16.85;;;;;;;-0.13;100.00;101245.25;4988063;28;20023;-67
2022/11/20 08:20:09;;;;;;;26.73;16.10;;;;;;;-0.10;100.00;101244.41;4987760;28;20065;-67
2022/11/20 08:22:35;;;;;;;26.45;15.93;;;;;;;0.06;100.00;101237.78;4989267;28;20095;-67
2022/11/20 08:25:00;;;;;;;25.42;16.00;;;;;;;0.12;100.00;101241.34;4988441;28;20034;-66
2022/11/20 08:27:26;;;;;;;26.60;15.55;;;;;;;0.01;100.00;101242.00;4988777;28;20018;-64
2022/11/20 08:29:51;;;;;;;24.95;15.73;;;;;;;0.06;100.00;101245.56;4989168;28;20034;-67
2022/11/20 08:32:16;;;;;;;28.25;15.85;;;;;;;0.10;100.00;101237.88;4990024;28;20149;-62
2022/11/20 08:34:42;;;;;;;24.80;15.23;;;;;;;0.19;100.00;101221.59;4987510;28;20030;-65
2022/11/20 08:37:07;;;;;;;23.77;15.25;;;;;;;0.31;100.00;101220.03;4988125;28;20049;-66
2022/11/20 08:39:32;;;;;;;27.77;14.90;;;;;;;0.09;100.00;101232.66;4988714;28;20026;-68
2022/11/20 08:41:58;;;;;;;22.40;15.13;;;;;;;0.21;100.00;101229.38;4988391;28;20014;-63
2022/11/20 08:44:23;;;;;;;23.73;15.00;;;;;;;0.42;100.00;101217.59;4989356;28;20117;-66
2022/11/20 08:46:48;;;;;;;23.50;14.52;;;;;;;0.49;100.00;101216.81;4988645;28;20034;-66
2022/11/20 08:49:14;;;;;;;24.98;15.20;;;;;;;0.43;100.00;101214.13;4989090;28;20084;-66
2022/11/20 08:51:41;;;;;;;26.20;15.40;;;;;;;0.49;100.00;101215.09;4987988;28;20069;-65
2022/11/20 08:54:07;;;;;;;25.50;16.05;;;;;;;0.58;100.00;101209.19;4982898;28;20077;-65
2022/11/20 08:56:32;;;;;;;24.88;15.80;;;;;;;0.61;100.00;101218.72;4989775;28;20034;-64
2022/11/20 08:58:59;;;;;;;23.17;15.18;;;;;;;0.76;100.00;101215.47;4981574;28;20054;-65
2022/11/20 09:01:25;;;;;;;25.00;14.23;;;;;;;1.04;100.00;101213.19;4989404;28;20108;-66
2022/11/20 09:03:51;;;;;;;23.48;14.05;;;;;;;1.13;100.00;101207.25;4988696;28;20033;-65
2022/11/20 09:06:16;;;;;;;26.17;15.40;;;;;;;1.05;100.00;101214.94;4985937;28;20026;-65
2022/11/20 09:08:42;;;;;;;26.13;15.10;;;;;;;1.04;100.00;101209.72;4987397;28;20038;-65
2022/11/20 09:11:07;;;;;;;24.27;15.25;;;;;;;1.15;100.00;101208.13;4986285;28;20030;-65
2022/11/20 09:13:34;;;;;;;30.23;15.23;;;;;;;1.33;100.00;101206.59;4987312;28;20408;-65
2022/11/20 09:16:03;;;;;;;28.02;16.23;;;;;;;1.47;100.00;101194.59;4987191;28;20026;-66
2022/11/20 09:18:30;;;;;;;24.45;15.40;;;;;;;1.47;100.00;101194.59;4986232;28;20377;-65
2022/11/20 09:20:59;;;;;;;27.50;15.15;;;;;;;1.51;100.00;101187.72;4986045;28;20025;-64
2022/11/20 09:23:26;;;;;;;25.13;14.70;;;;;;;1.45;100.00;101182.47;4987215;28;20022;-66
2022/11/20 09:25:52;;;;;;;24.30;14.25;;;;;;;1.48;100.00;101183.34;4987339;28;20354;-65
2022/11/20 09:28:18;;;;;;;28.23;14.38;;;;;;;1.70;100.00;101173.16;4987374;28;20014;-65
2022/11/20 09:30:43;;;;;;;24.20;13.90;;;;;;;1.74;100.00;101169.72;4987613;28;20097;-65
2022/11/20 09:33:09;;;;;;;26.30;14.95;;;;;;;1.66;100.00;101166.22;4987196;28;20436;-66
2022/11/20 09:35:34;;;;;;;24.02;14.43;;;;;;;1.66;100.00;101163.63;4985766;28;20113;-66
2022/11/20 09:38:05;;;;;;;26.52;14.93;;;;;;;1.80;100.00;101152.47;4986885;28;20485;-67
2022/11/20 09:40:30;;;;;;;25.67;15.45;;;;;;;1.86;100.00;101142.97;4986452;28;20045;-63
2022/11/20 09:43:05;;;;;;;27.00;15.65;;;;;;;1.97;100.00;101150.84;4984980;28;20109;-66
2022/11/20 09:45:40;;;;;;;29.60;15.95;;;;;;;2.21;100.00;101153.59;4985771;28;20034;-64
2022/11/20 09:48:27;;;;;;;24.75;15.27;;;;;;;2.17;100.00;101159.63;4986022;28;20061;-65
2022/11/20 09:50:58;;;;;;;25.70;15.20;;;;;;;2.24;100.00;101149.28;4980809;28;20061;-66
2022/11/20 09:53:31;;;;;;;24.95;14.30;;;;;;;2.49;100.00;101136.41;4985956;28;20083;-68
2022/11/20 09:55:56;;;;;;;26.75;15.65;;;;;;;2.44;100.00;101130.28;4986598;28;20038;-65
2022/11/20 09:58:21;;;;;;;25.33;15.00;;;;;;;2.38;100.00;101127.69;4986944;28;20077;-64
2022/11/20 10:00:47;;;;;;;27.85;15.70;;;;;;;2.35;100.00;101127.66;4987226;28;20466;-66
2022/11/20 10:03:51;;;;;;;23.25;15.25;;;;;;;2.51;100.00;101132.09;4985987;28;20023;-65
2022/11/20 10:06:18;;;;;;;22.80;14.85;;;;;;;2.53;100.00;101119.09;4982416;28;20125;-63
2022/11/20 10:09:02;;;;;;;25.67;15.70;;;;;;;2.64;100.00;101121.72;4987450;28;20057;-66
2022/11/20 10:11:35;;;;;;;29.58;14.68;;;;;;;2.87;100.00;101118.31;4986700;28;20245;-66
2022/11/20 10:14:18;;;;;;;24.83;15.20;;;;;;;2.97;100.00;101099.25;4984759;28;20081;-65
2022/11/20 10:16:55;;;;;;;26.88;15.63;;;;;;;2.89;100.00;101090.56;4984860;28;20038;-66
2022/11/20 10:19:55;;;;;;;25.60;14.68;;;;;;;3.03;100.00;101087.97;4968842;28;20473;-64
2022/11/20 10:22:48;;;;;;;28.20;16.00;;;;;;;2.74;100.00;101081.00;4983747;28;20037;-63
2022/11/20 10:25:22;;;;;;;26.45;16.23;;;;;;;2.68;100.00;101073.16;4981682;28;20567;-68
2022/11/20 10:28:25;;;;;;;29.88;16.25;;;;;;;2.52;100.00;101071.38;4985092;28;20497;-63
2022/11/20 10:30:57;;;;;;;23.80;15.10;;;;;;;2.45;100.00;101063.53;4983799;28;20031;-68
2022/11/20 10:33:24;;;;;;;26.10;16.05;;;;;;;2.52;100.00;101062.69;4976511;28;20069;-68
2022/11/20 10:35:54;;;;;;;28.88;17.25;;;;;;;2.67;100.00;101063.63;4984953;28;20027;-65
2022/11/20 10:38:33;;;;;;;29.08;16.27;;;;;;;2.68;100.00;101048.00;4986575;28;20058;-67
2022/11/20 10:44:14;;;;;;;25.02;16.42;;;;;;;2.62;100.00;101024.59;4966203;28;20030;-67
2022/11/20 10:46:43;;;;;;;33.60;16.60;;;;;;;2.59;100.00;101028.03;4986011;28;20164;-64
2022/11/20 10:49:19;;;;;;;28.38;17.35;;;;;;;2.57;100.00;101021.09;4986282;28;20391;-69
2022/11/20 10:51:50;;;;;;;28.63;16.27;;;;;;;2.71;100.00;101024.56;4989224;28;20109;-67
2022/11/20 10:54:42;;;;;;;33.05;18.60;;;;;;;2.73;100.00;101009.84;4991365;28;20497;-66
2022/11/20 10:57:20;;;;;;;27.92;16.52;;;;;;;2.80;100.00;101007.25;4983981;28;20050;-65
2022/11/20 10:59:55;;;;;;;30.98;17.33;;;;;;;2.93;100.00;100990.78;4988946;28;20583;-65
2022/11/20 11:02:22;;;;;;;31.90;18.02;;;;;;;3.08;100.00;100992.53;4990280;28;20397;-66
2022/11/20 11:04:54;;;;;;;28.70;17.67;;;;;;;2.98;100.00;101002.06;4989257;28;20049;-66
2022/11/20 11:07:30;;;;;;;31.65;18.00;;;;;;;3.07;100.00;101000.34;4989330;28;20026;-66
2022/11/20 11:09:56;;;;;;;34.83;18.25;;;;;;;3.08;100.00;101002.94;4986703;28;20048;-66
2022/11/20 11:12:25;;;;;;;32.78;19.00;;;;;;;3.07;100.00;101001.19;4989530;28;20113;-66
2022/11/20 11:14:52;;;;;;;33.70;19.40;;;;;;;3.23;100.00;100989.03;4989482;28;20096;-66